sensor_id;sensor_type;location;lat;lon;timestamp;temperature;humidity
9329;DHT22;4703;48.748;19.142;2023-03-05T00:01:15;7.50;85.50
9329;DHT22;4703;48.748;19.142;2023-03-05T00:03:49;4.60;82.10
9329;DHT22;4703;48.748;19.142;2023-03-05T00:06:22;4.60;82.10
9329;DHT22;4703;48.748;19.142;2023-03-05T00:08:51;4.60;82.90
9329;DHT22;4703;48.748;19.142;2023-03-05T00:11:19;4.60;82.60
9329;DHT22;4703;48.748;19.142;2023-03-05T00:13:50;4.60;81.90
9329;DHT22;4703;48.748;19.142;2023-03-05T00:16:17;4.60;82.00
9329;DHT22;4703;48.748;19.142;2023-03-05T00:18:46;4.60;82.00
9329;DHT22;4703;48.748;19.142;2023-03-05T00:21:21;4.50;81.70
9329;DHT22;4703;48.748;19.142;2023-03-05T00:23:49;4.50;81.40
9329;DHT22;4703;48.748;19.142;2023-03-05T00:26:18;4.60;81.80
9329;DHT22;4703;48.748;19.142;2023-03-05T00:28:46;4.60;81.50
9329;DHT22;4703;48.748;19.142;2023-03-05T00:31:16;4.60;81.00
9329;DHT22;4703;48.748;19.142;2023-03-05T00:33:44;4.60;81.10
9329;DHT22;4703;48.748;19.142;2023-03-05T00:36:12;4.60;80.70
9329;DHT22;4703;48.748;19.142;2023-03-05T00:38:39;4.80;80.50
9329;DHT22;4703;48.748;19.142;2023-03-05T00:41:05;4.50;80.20
9329;DHT22;4703;48.748;19.142;2023-03-05T00:43:34;4.50;80.30
9329;DHT22;4703;48.748;19.142;2023-03-05T00:46:01;6.80;82.50
9329;DHT22;4703;48.748;19.142;2023-03-05T00:48:28;4.50;81.00
9329;DHT22;4703;48.748;19.142;2023-03-05T00:50:55;4.50;81.10
9329;DHT22;4703;48.748;19.142;2023-03-05T00:53:22;4.50;81.20
9329;DHT22;4703;48.748;19.142;2023-03-05T00:55:50;4.50;81.70
9329;DHT22;4703;48.748;19.142;2023-03-05T00:58:17;4.50;82.10
9329;DHT22;4703;48.748;19.142;2023-03-05T01:00:44;6.70;84.30
9329;DHT22;4703;48.748;19.142;2023-03-05T01:03:11;4.50;81.60
9329;DHT22;4703;48.748;19.142;2023-03-05T01:05:38;4.50;81.60
9329;DHT22;4703;48.748;19.142;2023-03-05T01:08:05;7.00;84.30
9329;DHT22;4703;48.748;19.142;2023-03-05T01:10:32;6.80;84.70
9329;DHT22;4703;48.748;19.142;2023-03-05T01:12:59;4.50;82.10
9329;DHT22;4703;48.748;19.142;2023-03-05T01:15:28;4.50;81.90
9329;DHT22;4703;48.748;19.142;2023-03-05T01:17:55;4.50;81.80
9329;DHT22;4703;48.748;19.142;2023-03-05T01:20:22;4.50;81.00
9329;DHT22;4703;48.748;19.142;2023-03-05T01:22:49;4.50;81.10
9329;DHT22;4703;48.748;19.142;2023-03-05T01:25:17;6.80;83.40
9329;DHT22;4703;48.748;19.142;2023-03-05T01:27:44;4.50;81.90
9329;DHT22;4703;48.748;19.142;2023-03-05T01:30:13;4.50;81.90
9329;DHT22;4703;48.748;19.142;2023-03-05T01:32:41;4.60;82.30
9329;DHT22;4703;48.748;19.142;2023-03-05T01:35:14;4.50;82.40
9329;DHT22;4703;48.748;19.142;2023-03-05T01:37:45;4.50;82.60
9329;DHT22;4703;48.748;19.142;2023-03-05T01:40:14;4.40;82.90
9329;DHT22;4703;48.748;19.142;2023-03-05T01:42:53;4.40;83.00
9329;DHT22;4703;48.748;19.142;2023-03-05T01:45:23;4.40;83.00
9329;DHT22;4703;48.748;19.142;2023-03-05T01:47:50;4.50;83.60
9329;DHT22;4703;48.748;19.142;2023-03-05T01:50:20;4.40;83.80
9329;DHT22;4703;48.748;19.142;2023-03-05T01:52:53;4.50;83.30
9329;DHT22;4703;48.748;19.142;2023-03-05T01:55:24;4.50;83.30
9329;DHT22;4703;48.748;19.142;2023-03-05T01:57:59;4.40;83.80
9329;DHT22;4703;48.748;19.142;2023-03-05T02:00:42;4.40;84.30
9329;DHT22;4703;48.748;19.142;2023-03-05T02:03:12;4.40;84.50
9329;DHT22;4703;48.748;19.142;2023-03-05T02:05:40;4.40;85.10
9329;DHT22;4703;48.748;19.142;2023-03-05T02:08:16;4.40;85.30
9329;DHT22;4703;48.748;19.142;2023-03-05T02:10:50;4.40;85.30
9329;DHT22;4703;48.748;19.142;2023-03-05T02:13:25;4.50;84.60
9329;DHT22;4703;48.748;19.142;2023-03-05T02:15:54;4.40;85.20
9329;DHT22;4703;48.748;19.142;2023-03-05T02:18:24;4.40;84.90
9329;DHT22;4703;48.748;19.142;2023-03-05T02:21:12;4.40;85.00
9329;DHT22;4703;48.748;19.142;2023-03-05T02:23:39;4.50;85.00
9329;DHT22;4703;48.748;19.142;2023-03-05T02:26:09;4.30;85.20
9329;DHT22;4703;48.748;19.142;2023-03-05T02:28:52;4.30;85.60
9329;DHT22;4703;48.748;19.142;2023-03-05T02:31:24;4.40;85.50
9329;DHT22;4703;48.748;19.142;2023-03-05T02:33:52;6.20;88.00
9329;DHT22;4703;48.748;19.142;2023-03-05T02:36:21;4.40;86.80
9329;DHT22;4703;48.748;19.142;2023-03-05T02:38:48;4.30;86.60
9329;DHT22;4703;48.748;19.142;2023-03-05T02:41:15;4.30;86.80
9329;DHT22;4703;48.748;19.142;2023-03-05T02:43:42;4.30;86.90
9329;DHT22;4703;48.748;19.142;2023-03-05T02:46:10;4.30;86.80
9329;DHT22;4703;48.748;19.142;2023-03-05T02:48:37;4.30;87.20
9329;DHT22;4703;48.748;19.142;2023-03-05T02:51:04;4.30;86.80
9329;DHT22;4703;48.748;19.142;2023-03-05T02:53:32;4.30;87.30
9329;DHT22;4703;48.748;19.142;2023-03-05T02:55:59;4.30;87.10
9329;DHT22;4703;48.748;19.142;2023-03-05T02:58:26;4.30;87.50
9329;DHT22;4703;48.748;19.142;2023-03-05T03:00:53;4.20;87.80
9329;DHT22;4703;48.748;19.142;2023-03-05T03:03:20;4.20;88.40
9329;DHT22;4703;48.748;19.142;2023-03-05T03:05:47;4.20;88.30
9329;DHT22;4703;48.748;19.142;2023-03-05T03:08:14;4.30;88.10
9329;DHT22;4703;48.748;19.142;2023-03-05T03:10:41;4.30;88.60
9329;DHT22;4703;48.748;19.142;2023-03-05T03:13:08;4.20;88.80
9329;DHT22;4703;48.748;19.142;2023-03-05T03:15:35;4.20;89.10
9329;DHT22;4703;48.748;19.142;2023-03-05T03:18:03;4.20;89.20
9329;DHT22;4703;48.748;19.142;2023-03-05T03:20:30;5.00;90.10
9329;DHT22;4703;48.748;19.142;2023-03-05T03:22:58;4.10;89.10
9329;DHT22;4703;48.748;19.142;2023-03-05T03:25:25;4.20;89.70
9329;DHT22;4703;48.748;19.142;2023-03-05T03:27:52;5.00;90.30
9329;DHT22;4703;48.748;19.142;2023-03-05T03:30:18;6.60;91.20
9329;DHT22;4703;48.748;19.142;2023-03-05T03:32:45;4.10;90.20
9329;DHT22;4703;48.748;19.142;2023-03-05T03:35:13;4.10;90.20
9329;DHT22;4703;48.748;19.142;2023-03-05T03:37:39;4.00;90.20
9329;DHT22;4703;48.748;19.142;2023-03-05T03:40:07;4.10;90.60
9329;DHT22;4703;48.748;19.142;2023-03-05T03:42:35;4.10;90.70
9329;DHT22;4703;48.748;19.142;2023-03-05T03:45:02;4.10;90.80
9329;DHT22;4703;48.748;19.142;2023-03-05T03:47:30;4.10;90.80
9329;DHT22;4703;48.748;19.142;2023-03-05T03:49:57;4.00;90.70
9329;DHT22;4703;48.748;19.142;2023-03-05T03:52:24;4.10;90.90
9329;DHT22;4703;48.748;19.142;2023-03-05T03:54:52;4.10;90.80
9329;DHT22;4703;48.748;19.142;2023-03-05T03:57:21;4.20;90.90
9329;DHT22;4703;48.748;19.142;2023-03-05T03:59:48;4.20;90.90
9329;DHT22;4703;48.748;19.142;2023-03-05T04:02:16;4.10;91.00
9329;DHT22;4703;48.748;19.142;2023-03-05T04:04:44;6.60;92.30
9329;DHT22;4703;48.748;19.142;2023-03-05T04:07:11;4.10;91.50
9329;DHT22;4703;48.748;19.142;2023-03-05T04:09:38;6.60;92.90
9329;DHT22;4703;48.748;19.142;2023-03-05T04:12:05;4.10;92.00
9329;DHT22;4703;48.748;19.142;2023-03-05T04:14:33;4.00;92.30
9329;DHT22;4703;48.748;19.142;2023-03-05T04:17:00;0.90;91.20
9329;DHT22;4703;48.748;19.142;2023-03-05T04:19:27;4.00;92.50
9329;DHT22;4703;48.748;19.142;2023-03-05T04:21:57;4.00;92.50
9329;DHT22;4703;48.748;19.142;2023-03-05T04:24:24;4.00;92.60
9329;DHT22;4703;48.748;19.142;2023-03-05T04:26:51;4.00;92.80
9329;DHT22;4703;48.748;19.142;2023-03-05T04:29:18;4.10;93.00
9329;DHT22;4703;48.748;19.142;2023-03-05T04:31:45;4.10;93.20
9329;DHT22;4703;48.748;19.142;2023-03-05T04:34:12;4.10;93.20
9329;DHT22;4703;48.748;19.142;2023-03-05T04:36:39;4.10;93.30
9329;DHT22;4703;48.748;19.142;2023-03-05T04:39:06;3.90;93.40
9329;DHT22;4703;48.748;19.142;2023-03-05T04:41:33;6.40;94.90
9329;DHT22;4703;48.748;19.142;2023-03-05T04:44:00;4.00;93.90
9329;DHT22;4703;48.748;19.142;2023-03-05T04:46:27;4.00;94.10
9329;DHT22;4703;48.748;19.142;2023-03-05T04:48:55;4.00;94.50
9329;DHT22;4703;48.748;19.142;2023-03-05T04:51:22;6.20;95.10
9329;DHT22;4703;48.748;19.142;2023-03-05T04:53:49;4.00;94.50
9329;DHT22;4703;48.748;19.142;2023-03-05T04:56:16;4.00;94.80
9329;DHT22;4703;48.748;19.142;2023-03-05T04:58:44;3.90;94.80
9329;DHT22;4703;48.748;19.142;2023-03-05T05:01:11;3.90;95.00
9329;DHT22;4703;48.748;19.142;2023-03-05T05:03:39;3.90;95.30
9329;DHT22;4703;48.748;19.142;2023-03-05T05:06:06;5.90;96.20
9329;DHT22;4703;48.748;19.142;2023-03-05T05:08:33;3.90;95.40
9329;DHT22;4703;48.748;19.142;2023-03-05T05:11:01;3.90;95.70
9329;DHT22;4703;48.748;19.142;2023-03-05T05:13:30;3.90;95.00
9329;DHT22;4703;48.748;19.142;2023-03-05T05:15:57;4.00;93.70
9329;DHT22;4703;48.748;19.142;2023-03-05T05:18:26;4.00;93.40
9329;DHT22;4703;48.748;19.142;2023-03-05T05:20:53;4.00;93.40
9329;DHT22;4703;48.748;19.142;2023-03-05T05:23:20;4.00;93.40
9329;DHT22;4703;48.748;19.142;2023-03-05T05:25:56;3.90;93.20
9329;DHT22;4703;48.748;19.142;2023-03-05T05:28:26;3.90;93.30
9329;DHT22;4703;48.748;19.142;2023-03-05T05:30:53;3.90;93.10
9329;DHT22;4703;48.748;19.142;2023-03-05T05:33:21;3.90;93.10
9329;DHT22;4703;48.748;19.142;2023-03-05T05:35:48;3.90;93.10
9329;DHT22;4703;48.748;19.142;2023-03-05T05:38:16;3.90;93.10
9329;DHT22;4703;48.748;19.142;2023-03-05T05:40:43;3.80;93.20
9329;DHT22;4703;48.748;19.142;2023-03-05T05:43:10;3.70;93.10
9329;DHT22;4703;48.748;19.142;2023-03-05T05:45:37;3.80;93.20
9329;DHT22;4703;48.748;19.142;2023-03-05T05:48:05;6.20;94.10
9329;DHT22;4703;48.748;19.142;2023-03-05T05:50:32;3.90;92.50
9329;DHT22;4703;48.748;19.142;2023-03-05T05:52:59;3.80;92.70
9329;DHT22;4703;48.748;19.142;2023-03-05T05:55:26;3.90;92.80
9329;DHT22;4703;48.748;19.142;2023-03-05T05:57:53;3.80;93.00
9329;DHT22;4703;48.748;19.142;2023-03-05T06:00:21;3.80;93.10
9329;DHT22;4703;48.748;19.142;2023-03-05T06:02:48;3.90;93.00
9329;DHT22;4703;48.748;19.142;2023-03-05T06:05:15;6.40;94.10
9329;DHT22;4703;48.748;19.142;2023-03-05T06:07:42;3.80;93.00
9329;DHT22;4703;48.748;19.142;2023-03-05T06:10:10;3.80;93.00
9329;DHT22;4703;48.748;19.142;2023-03-05T06:12:37;3.80;93.10
9329;DHT22;4703;48.748;19.142;2023-03-05T06:15:04;4.10;92.90
9329;DHT22;4703;48.748;19.142;2023-03-05T06:17:32;3.80;92.80
9329;DHT22;4703;48.748;19.142;2023-03-05T06:19:59;3.80;92.50
9329;DHT22;4703;48.748;19.142;2023-03-05T06:22:26;3.90;92.50
9329;DHT22;4703;48.748;19.142;2023-03-05T06:24:53;3.90;92.60
9329;DHT22;4703;48.748;19.142;2023-03-05T06:27:20;5.90;93.80
9329;DHT22;4703;48.748;19.142;2023-03-05T06:29:51;3.90;92.90
9329;DHT22;4703;48.748;19.142;2023-03-05T06:32:20;3.90;93.10
9329;DHT22;4703;48.748;19.142;2023-03-05T06:34:47;3.90;93.30
9329;DHT22;4703;48.748;19.142;2023-03-05T06:37:14;4.00;93.50
9329;DHT22;4703;48.748;19.142;2023-03-05T06:39:41;3.90;93.70
9329;DHT22;4703;48.748;19.142;2023-03-05T06:42:08;3.90;93.60
9329;DHT22;4703;48.748;19.142;2023-03-05T06:44:39;3.90;92.20
9329;DHT22;4703;48.748;19.142;2023-03-05T06:47:07;3.90;91.80
9329;DHT22;4703;48.748;19.142;2023-03-05T06:49:36;3.90;91.40
9329;DHT22;4703;48.748;19.142;2023-03-05T06:52:05;3.90;91.40
9329;DHT22;4703;48.748;19.142;2023-03-05T06:54:32;3.90;90.40
9329;DHT22;4703;48.748;19.142;2023-03-05T06:57:00;3.80;90.00
9329;DHT22;4703;48.748;19.142;2023-03-05T06:59:27;3.90;90.40
9329;DHT22;4703;48.748;19.142;2023-03-05T07:01:54;3.90;90.10
9329;DHT22;4703;48.748;19.142;2023-03-05T07:04:21;5.60;91.10
9329;DHT22;4703;48.748;19.142;2023-03-05T07:06:49;3.80;90.50
9329;DHT22;4703;48.748;19.142;2023-03-05T07:09:16;3.80;90.70
9329;DHT22;4703;48.748;19.142;2023-03-05T07:11:43;3.80;90.90
9329;DHT22;4703;48.748;19.142;2023-03-05T07:14:10;6.60;92.00
9329;DHT22;4703;48.748;19.142;2023-03-05T07:16:37;3.90;91.00
9329;DHT22;4703;48.748;19.142;2023-03-05T07:19:05;3.80;90.80
9329;DHT22;4703;48.748;19.142;2023-03-05T07:21:34;6.00;91.60
9329;DHT22;4703;48.748;19.142;2023-03-05T07:24:05;4.00;90.60
9329;DHT22;4703;48.748;19.142;2023-03-05T07:26:33;3.90;90.50
9329;DHT22;4703;48.748;19.142;2023-03-05T07:29:01;3.90;90.50
9329;DHT22;4703;48.748;19.142;2023-03-05T07:31:29;3.90;90.90
9329;DHT22;4703;48.748;19.142;2023-03-05T07:34:00;5.10;91.50
9329;DHT22;4703;48.748;19.142;2023-03-05T07:36:29;4.00;90.70
9329;DHT22;4703;48.748;19.142;2023-03-05T07:38:56;4.50;90.70
9329;DHT22;4703;48.748;19.142;2023-03-05T07:41:23;4.00;90.40
9329;DHT22;4703;48.748;19.142;2023-03-05T07:43:51;4.10;90.60
9329;DHT22;4703;48.748;19.142;2023-03-05T07:46:22;4.00;90.60
9329;DHT22;4703;48.748;19.142;2023-03-05T07:48:51;4.10;90.10
9329;DHT22;4703;48.748;19.142;2023-03-05T07:51:21;4.10;90.10
9329;DHT22;4703;48.748;19.142;2023-03-05T07:53:50;4.20;89.10
9329;DHT22;4703;48.748;19.142;2023-03-05T07:56:29;4.20;89.20
9329;DHT22;4703;48.748;19.142;2023-03-05T07:59:06;4.30;89.50
9329;DHT22;4703;48.748;19.142;2023-03-05T08:01:36;4.40;90.20
9329;DHT22;4703;48.748;19.142;2023-03-05T08:04:05;4.40;90.10
9329;DHT22;4703;48.748;19.142;2023-03-05T08:06:32;4.40;90.00
9329;DHT22;4703;48.748;19.142;2023-03-05T08:08:59;4.40;88.80
9329;DHT22;4703;48.748;19.142;2023-03-05T08:11:26;4.50;87.90
9329;DHT22;4703;48.748;19.142;2023-03-05T08:13:55;4.50;86.00
9329;DHT22;4703;48.748;19.142;2023-03-05T08:16:25;4.50;85.50
9329;DHT22;4703;48.748;19.142;2023-03-05T08:18:55;4.60;85.60
9329;DHT22;4703;48.748;19.142;2023-03-05T08:21:25;5.50;85.60
9329;DHT22;4703;48.748;19.142;2023-03-05T08:24:04;7.20;87.70
9329;DHT22;4703;48.748;19.142;2023-03-05T08:26:35;4.70;86.00
9329;DHT22;4703;48.748;19.142;2023-03-05T08:29:05;4.70;84.40
9329;DHT22;4703;48.748;19.142;2023-03-05T08:31:33;4.70;82.90
9329;DHT22;4703;48.748;19.142;2023-03-05T08:34:01;4.80;83.40
9329;DHT22;4703;48.748;19.142;2023-03-05T08:36:29;4.80;83.90
9329;DHT22;4703;48.748;19.142;2023-03-05T08:38:56;4.90;84.00
9329;DHT22;4703;48.748;19.142;2023-03-05T08:41:24;4.90;83.70
9329;DHT22;4703;48.748;19.142;2023-03-05T08:43:51;5.00;83.60
9329;DHT22;4703;48.748;19.142;2023-03-05T08:46:19;5.10;83.00
9329;DHT22;4703;48.748;19.142;2023-03-05T08:48:46;5.20;83.70
9329;DHT22;4703;48.748;19.142;2023-03-05T08:51:19;5.30;83.90
9329;DHT22;4703;48.748;19.142;2023-03-05T08:53:49;5.40;82.70
9329;DHT22;4703;48.748;19.142;2023-03-05T08:56:15;6.90;83.00
9329;DHT22;4703;48.748;19.142;2023-03-05T08:58:43;5.60;80.00
9329;DHT22;4703;48.748;19.142;2023-03-05T09:01:13;5.60;79.90
9329;DHT22;4703;48.748;19.142;2023-03-05T09:03:40;5.60;77.10
9329;DHT22;4703;48.748;19.142;2023-03-05T09:06:09;6.60;77.80
9329;DHT22;4703;48.748;19.142;2023-03-05T09:08:38;5.80;78.40
9329;DHT22;4703;48.748;19.142;2023-03-05T09:11:07;5.90;79.40
9329;DHT22;4703;48.748;19.142;2023-03-05T09:13:35;5.90;77.30
9329;DHT22;4703;48.748;19.142;2023-03-05T09:16:05;6.00;74.10
9329;DHT22;4703;48.748;19.142;2023-03-05T09:18:34;6.00;74.70
9329;DHT22;4703;48.748;19.142;2023-03-05T09:21:10;6.00;76.00
9329;DHT22;4703;48.748;19.142;2023-03-05T09:23:40;7.50;77.10
9329;DHT22;4703;48.748;19.142;2023-03-05T09:26:08;5.90;76.10
9329;DHT22;4703;48.748;19.142;2023-03-05T09:28:38;5.90;76.80
9329;DHT22;4703;48.748;19.142;2023-03-05T09:31:07;5.90;76.60
9329;DHT22;4703;48.748;19.142;2023-03-05T09:33:35;6.00;75.90
9329;DHT22;4703;48.748;19.142;2023-03-05T09:36:03;6.00;75.10
9329;DHT22;4703;48.748;19.142;2023-03-05T09:38:31;6.00;74.80
9329;DHT22;4703;48.748;19.142;2023-03-05T09:41:05;6.20;73.60
9329;DHT22;4703;48.748;19.142;2023-03-05T09:46:52;5.90;72.60
9329;DHT22;4703;48.748;19.142;2023-03-05T09:52:24;5.80;71.80
9329;DHT22;4703;48.748;19.142;2023-03-05T09:55:01;5.70;70.30
9329;DHT22;4703;48.748;19.142;2023-03-05T09:57:40;5.70;70.70
9329;DHT22;4703;48.748;19.142;2023-03-05T10:00:46;5.70;71.30
9329;DHT22;4703;48.748;19.142;2023-03-05T10:03:25;5.70;71.40
9329;DHT22;4703;48.748;19.142;2023-03-05T10:09:03;5.60;72.30
9329;DHT22;4703;48.748;19.142;2023-03-05T10:14:32;5.60;72.70
9329;DHT22;4703;48.748;19.142;2023-03-05T10:23:26;5.60;74.00
9329;DHT22;4703;48.748;19.142;2023-03-05T10:32:59;5.70;74.00
9329;DHT22;4703;48.748;19.142;2023-03-05T10:40:45;5.70;74.20
9329;DHT22;4703;48.748;19.142;2023-03-05T10:46:32;5.80;74.40
9329;DHT22;4703;48.748;19.142;2023-03-05T10:54:33;6.70;74.40
9329;DHT22;4703;48.748;19.142;2023-03-05T10:57:19;5.70;72.30
9329;DHT22;4703;48.748;19.142;2023-03-05T10:59:53;5.60;72.90
9329;DHT22;4703;48.748;19.142;2023-03-05T11:02:24;5.60;74.00
9329;DHT22;4703;48.748;19.142;2023-03-05T11:04:52;6.20;75.20
9329;DHT22;4703;48.748;19.142;2023-03-05T11:10:05;5.40;74.70
9329;DHT22;4703;48.748;19.142;2023-03-05T11:12:37;5.50;75.60
9329;DHT22;4703;48.748;19.142;2023-03-05T11:15:09;7.30;78.10
9329;DHT22;4703;48.748;19.142;2023-03-05T11:18:05;5.50;76.70
9329;DHT22;4703;48.748;19.142;2023-03-05T11:20:39;6.10;77.50
9329;DHT22;4703;48.748;19.142;2023-03-05T11:23:20;5.50;76.50
9329;DHT22;4703;48.748;19.142;2023-03-05T11:26:15;5.50;77.50
9329;DHT22;4703;48.748;19.142;2023-03-05T11:31:27;6.90;78.60
9329;DHT22;4703;48.748;19.142;2023-03-05T11:34:03;5.40;78.10
9329;DHT22;4703;48.748;19.142;2023-03-05T11:36:36;5.40;78.70
9329;DHT22;4703;48.748;19.142;2023-03-05T11:41:43;5.20;79.00
9329;DHT22;4703;48.748;19.142;2023-03-05T11:44:38;5.30;81.10
9329;DHT22;4703;48.748;19.142;2023-03-05T11:50:09;5.00;80.70
9329;DHT22;4703;48.748;19.142;2023-03-05T12:01:20;4.90;87.10
9329;DHT22;4703;48.748;19.142;2023-03-05T12:03:49;5.00;88.20
9329;DHT22;4703;48.748;19.142;2023-03-05T12:06:40;7.00;90.00
9329;DHT22;4703;48.748;19.142;2023-03-05T12:22:44;4.90;87.10
9329;DHT22;4703;48.748;19.142;2023-03-05T12:25:33;6.90;87.50
9329;DHT22;4703;48.748;19.142;2023-03-05T12:31:03;4.60;84.20
9329;DHT22;4703;48.748;19.142;2023-03-05T12:33:40;4.70;84.70
9329;DHT22;4703;48.748;19.142;2023-03-05T12:38:51;4.40;83.70
9329;DHT22;4703;48.748;19.142;2023-03-05T12:46:41;4.30;84.50
9329;DHT22;4703;48.748;19.142;2023-03-05T12:51:56;4.70;83.60
9329;DHT22;4703;48.748;19.142;2023-03-05T12:54:37;4.30;83.00
9329;DHT22;4703;48.748;19.142;2023-03-05T12:57:15;4.30;81.80
9329;DHT22;4703;48.748;19.142;2023-03-05T13:00:05;4.30;81.50
9329;DHT22;4703;48.748;19.142;2023-03-05T13:02:44;4.30;82.50
9329;DHT22;4703;48.748;19.142;2023-03-05T13:05:31;4.50;83.00
9329;DHT22;4703;48.748;19.142;2023-03-05T13:10:54;4.70;83.60
9329;DHT22;4703;48.748;19.142;2023-03-05T13:13:32;7.10;82.20
9329;DHT22;4703;48.748;19.142;2023-03-05T13:16:04;4.90;78.70
9329;DHT22;4703;48.748;19.142;2023-03-05T13:18:32;5.10;78.10
9329;DHT22;4703;48.748;19.142;2023-03-05T13:21:14;5.20;76.00
9329;DHT22;4703;48.748;19.142;2023-03-05T13:23:50;5.40;75.20
9329;DHT22;4703;48.748;19.142;2023-03-05T13:26:36;5.40;74.60
9329;DHT22;4703;48.748;19.142;2023-03-05T13:29:11;5.30;74.50
9329;DHT22;4703;48.748;19.142;2023-03-05T13:31:45;5.40;74.70
9329;DHT22;4703;48.748;19.142;2023-03-05T13:37:05;5.10;70.20
9329;DHT22;4703;48.748;19.142;2023-03-05T13:40:00;5.00;70.40
9329;DHT22;4703;48.748;19.142;2023-03-05T13:42:34;4.80;71.60
9329;DHT22;4703;48.748;19.142;2023-03-05T13:45:20;4.70;70.80
9329;DHT22;4703;48.748;19.142;2023-03-05T13:48:02;4.60;71.20
9329;DHT22;4703;48.748;19.142;2023-03-05T13:50:39;4.50;71.60
9329;DHT22;4703;48.748;19.142;2023-03-05T13:53:27;4.50;70.50
9329;DHT22;4703;48.748;19.142;2023-03-05T13:56:00;4.50;70.90
9329;DHT22;4703;48.748;19.142;2023-03-05T14:01:32;4.50;71.50
9329;DHT22;4703;48.748;19.142;2023-03-05T14:06:50;4.60;70.80
9329;DHT22;4703;48.748;19.142;2023-03-05T14:09:51;4.50;69.40
9329;DHT22;4703;48.748;19.142;2023-03-05T14:15:22;4.60;67.70
9329;DHT22;4703;48.748;19.142;2023-03-05T14:18:26;4.50;66.80
9329;DHT22;4703;48.748;19.142;2023-03-05T14:21:08;4.50;66.80
9329;DHT22;4703;48.748;19.142;2023-03-05T14:26:31;4.30;67.40
9329;DHT22;4703;48.748;19.142;2023-03-05T14:32:04;4.30;68.50
9329;DHT22;4703;48.748;19.142;2023-03-05T14:34:38;4.20;68.50
9329;DHT22;4703;48.748;19.142;2023-03-05T14:37:26;4.20;68.80
9329;DHT22;4703;48.748;19.142;2023-03-05T14:39:59;4.20;68.80
9329;DHT22;4703;48.748;19.142;2023-03-05T14:42:35;4.20;69.10
9329;DHT22;4703;48.748;19.142;2023-03-05T14:45:17;4.30;69.30
9329;DHT22;4703;48.748;19.142;2023-03-05T14:47:46;5.90;69.90
9329;DHT22;4703;48.748;19.142;2023-03-05T14:50:19;4.20;67.30
9329;DHT22;4703;48.748;19.142;2023-03-05T14:52:49;4.20;67.70
9329;DHT22;4703;48.748;19.142;2023-03-05T14:55:21;6.80;70.20
9329;DHT22;4703;48.748;19.142;2023-03-05T14:57:51;4.20;67.70
9329;DHT22;4703;48.748;19.142;2023-03-05T15:00:24;4.30;66.70
9329;DHT22;4703;48.748;19.142;2023-03-05T15:02:52;4.20;67.10
9329;DHT22;4703;48.748;19.142;2023-03-05T15:05:20;4.20;67.90
9329;DHT22;4703;48.748;19.142;2023-03-05T15:07:47;4.20;67.10
9329;DHT22;4703;48.748;19.142;2023-03-05T15:10:17;4.20;67.00
9329;DHT22;4703;48.748;19.142;2023-03-05T15:12:47;4.10;67.20
9329;DHT22;4703;48.748;19.142;2023-03-05T15:15:17;4.10;67.30
9329;DHT22;4703;48.748;19.142;2023-03-05T15:17:47;4.00;67.00
9329;DHT22;4703;48.748;19.142;2023-03-05T15:20:23;4.10;67.50
9329;DHT22;4703;48.748;19.142;2023-03-05T15:22:51;4.00;68.20
9329;DHT22;4703;48.748;19.142;2023-03-05T15:25:21;4.00;68.40
9329;DHT22;4703;48.748;19.142;2023-03-05T15:27:49;3.90;68.60
9329;DHT22;4703;48.748;19.142;2023-03-05T15:32:51;4.00;68.10
9329;DHT22;4703;48.748;19.142;2023-03-05T15:35:20;3.90;68.60
9329;DHT22;4703;48.748;19.142;2023-03-05T15:37:47;5.10;70.00
9329;DHT22;4703;48.748;19.142;2023-03-05T15:40:14;3.80;69.10
9329;DHT22;4703;48.748;19.142;2023-03-05T15:42:41;3.80;69.10
9329;DHT22;4703;48.748;19.142;2023-03-05T15:45:09;3.80;68.50
9329;DHT22;4703;48.748;19.142;2023-03-05T15:47:36;3.80;68.10
9329;DHT22;4703;48.748;19.142;2023-03-05T15:50:04;3.80;68.90
9329;DHT22;4703;48.748;19.142;2023-03-05T15:52:31;3.80;69.40
9329;DHT22;4703;48.748;19.142;2023-03-05T15:54:59;3.70;69.10
9329;DHT22;4703;48.748;19.142;2023-03-05T15:57:27;3.70;68.90
9329;DHT22;4703;48.748;19.142;2023-03-05T15:59:54;6.50;72.30
9329;DHT22;4703;48.748;19.142;2023-03-05T16:02:21;3.70;70.40
9329;DHT22;4703;48.748;19.142;2023-03-05T16:04:50;3.70;70.40
9329;DHT22;4703;48.748;19.142;2023-03-05T16:07:17;3.70;70.00
9329;DHT22;4703;48.748;19.142;2023-03-05T16:09:46;3.70;69.00
9329;DHT22;4703;48.748;19.142;2023-03-05T16:12:19;3.70;68.70
9329;DHT22;4703;48.748;19.142;2023-03-05T16:14:49;4.80;70.30
9329;DHT22;4703;48.748;19.142;2023-03-05T16:17:19;5.50;71.30
9329;DHT22;4703;48.748;19.142;2023-03-05T16:19:49;3.60;69.10
9329;DHT22;4703;48.748;19.142;2023-03-05T16:22:19;3.60;69.30
9329;DHT22;4703;48.748;19.142;2023-03-05T16:24:46;5.80;71.70
9329;DHT22;4703;48.748;19.142;2023-03-05T16:27:13;3.60;68.80
9329;DHT22;4703;48.748;19.142;2023-03-05T16:29:40;3.60;68.70
9329;DHT22;4703;48.748;19.142;2023-03-05T16:32:07;5.90;71.30
9329;DHT22;4703;48.748;19.142;2023-03-05T16:34:34;4.10;68.80
9329;DHT22;4703;48.748;19.142;2023-03-05T16:37:01;3.60;68.80
9329;DHT22;4703;48.748;19.142;2023-03-05T16:39:32;3.60;68.00
9329;DHT22;4703;48.748;19.142;2023-03-05T16:41:59;6.40;70.60
9329;DHT22;4703;48.748;19.142;2023-03-05T16:44:26;6.00;69.60
9329;DHT22;4703;48.748;19.142;2023-03-05T16:46:53;3.50;67.20
9329;DHT22;4703;48.748;19.142;2023-03-05T16:49:22;3.50;67.70
9329;DHT22;4703;48.748;19.142;2023-03-05T16:51:50;3.50;67.80
9329;DHT22;4703;48.748;19.142;2023-03-05T16:54:17;3.50;68.20
9329;DHT22;4703;48.748;19.142;2023-03-05T16:56:44;3.50;68.80
9329;DHT22;4703;48.748;19.142;2023-03-05T16:59:11;3.40;69.30
9329;DHT22;4703;48.748;19.142;2023-03-05T17:01:38;3.40;69.40
9329;DHT22;4703;48.748;19.142;2023-03-05T17:04:06;3.40;69.80
9329;DHT22;4703;48.748;19.142;2023-03-05T17:06:33;3.40;68.80
9329;DHT22;4703;48.748;19.142;2023-03-05T17:09:00;3.50;68.40
9329;DHT22;4703;48.748;19.142;2023-03-05T17:11:28;3.90;69.20
9329;DHT22;4703;48.748;19.142;2023-03-05T17:13:55;3.50;68.90
9329;DHT22;4703;48.748;19.142;2023-03-05T17:16:23;3.40;68.30
9329;DHT22;4703;48.748;19.142;2023-03-05T17:18:50;3.40;68.50
9329;DHT22;4703;48.748;19.142;2023-03-05T17:21:17;6.50;72.10
9329;DHT22;4703;48.748;19.142;2023-03-05T17:23:44;3.40;68.70
9329;DHT22;4703;48.748;19.142;2023-03-05T17:26:14;3.40;69.00
9329;DHT22;4703;48.748;19.142;2023-03-05T17:28:43;3.40;69.20
9329;DHT22;4703;48.748;19.142;2023-03-05T17:31:12;6.20;72.00
9329;DHT22;4703;48.748;19.142;2023-03-05T17:33:40;3.40;69.70
9329;DHT22;4703;48.748;19.142;2023-03-05T17:36:13;3.40;69.40
9329;DHT22;4703;48.748;19.142;2023-03-05T17:38:41;3.30;69.50
9329;DHT22;4703;48.748;19.142;2023-03-05T17:41:08;4.20;70.70
9329;DHT22;4703;48.748;19.142;2023-03-05T17:43:36;3.30;70.80
9329;DHT22;4703;48.748;19.142;2023-03-05T17:46:03;3.40;70.00
9329;DHT22;4703;48.748;19.142;2023-03-05T17:48:30;3.40;70.50
9329;DHT22;4703;48.748;19.142;2023-03-05T17:51:00;6.30;73.60
9329;DHT22;4703;48.748;19.142;2023-03-05T17:53:27;3.40;71.30
9329;DHT22;4703;48.748;19.142;2023-03-05T17:55:54;3.40;71.80
9329;DHT22;4703;48.748;19.142;2023-03-05T17:58:21;3.30;71.60
9329;DHT22;4703;48.748;19.142;2023-03-05T18:00:48;3.40;71.80
9329;DHT22;4703;48.748;19.142;2023-03-05T18:03:15;3.40;70.80
9329;DHT22;4703;48.748;19.142;2023-03-05T18:05:43;3.30;70.20
9329;DHT22;4703;48.748;19.142;2023-03-05T18:08:11;3.40;70.10
9329;DHT22;4703;48.748;19.142;2023-03-05T18:10:39;3.30;70.70